createdAt,value
2019-01-19T00:02:03.753Z,13.47
2019-01-19T00:07:44.896Z,9.53
2019-01-19T00:12:53.641Z,8.90
2019-01-19T00:18:25.911Z,7.17
2019-01-19T00:24:00.990Z,7.27
2019-01-19T00:29:32.182Z,7.90
2019-01-19T00:35:18.206Z,8.37
2019-01-19T00:41:08.874Z,8.17
2019-01-19T00:46:33.901Z,7.80
2019-01-19T00:52:19.489Z,6.50
2019-01-19T00:57:44.637Z,7.07
2019-01-19T01:03:48.373Z,6.70
2019-01-19T01:09:34.362Z,7.23
2019-01-19T01:15:29.102Z,6.67
2019-01-19T01:21:17.594Z,5.83
2019-01-19T01:26:49.941Z,5.57
2019-01-19T01:32:11.879Z,5.30
2019-01-19T01:37:33.181Z,6.20
2019-01-19T01:43:09.926Z,5.10
2019-01-19T01:48:44.201Z,4.63
2019-01-19T01:54:09.685Z,4.57
2019-01-19T01:59:46.293Z,4.57
2019-01-19T02:05:16.310Z,5.00
2019-01-19T02:10:57.364Z,4.40
2019-01-19T02:16:38.907Z,4.57
2019-01-19T02:22:22.254Z,4.90
2019-01-19T02:27:46.987Z,5.77
2019-01-19T02:33:24.798Z,7.40
2019-01-19T02:38:43.409Z,4.93
2019-01-19T02:44:25.226Z,4.33
2019-01-19T02:50:01.748Z,4.30
2019-01-19T02:55:24.356Z,4.77
2019-01-19T03:00:48.065Z,4.43
2019-01-19T03:05:59.443Z,4.20
2019-01-19T03:11:25.756Z,4.73
2019-01-19T03:16:56.994Z,5.20
2019-01-19T03:22:19.491Z,5.57
2019-01-19T03:27:54.193Z,5.10
2019-01-19T03:33:19.636Z,5.27
2019-01-19T03:38:46.067Z,4.23
2019-01-19T03:44:16.454Z,4.90
2019-01-19T03:49:31.481Z,4.70
2019-01-19T03:54:42.935Z,5.07
2019-01-19T04:00:16.660Z,4.67
2019-01-19T04:05:45.777Z,5.27
2019-01-19T04:11:16.110Z,4.93
2019-01-19T04:16:47.161Z,4.57
2019-01-19T04:21:56.259Z,4.83
2019-01-19T04:26:55.361Z,4.63
2019-01-19T04:31:51.079Z,4.33
2019-01-19T04:36:47.092Z,4.57
2019-01-19T04:41:42.956Z,4.20
2019-01-19T04:46:39.877Z,5.00
2019-01-19T04:51:35.622Z,4.83
2019-01-19T04:56:31.352Z,4.57
2019-01-19T05:01:27.048Z,4.07
2019-01-19T05:06:30.046Z,4.60
2019-01-19T05:11:20.149Z,4.37
2019-01-19T05:16:15.869Z,3.90
2019-01-19T05:21:11.886Z,3.83
2019-01-19T05:26:07.723Z,3.90
2019-01-19T05:31:03.432Z,3.90
2019-01-19T05:35:59.088Z,3.53
2019-01-19T05:40:55.314Z,4.20
2019-01-19T05:45:51.037Z,4.27
2019-01-19T05:50:46.785Z,3.57
2019-01-19T05:55:43.498Z,7.20
2019-01-19T06:00:39.186Z,7.10
2019-01-19T06:05:35.529Z,5.40
2019-01-19T06:10:31.272Z,7.37
2019-01-19T06:15:27.005Z,5.43
2019-01-19T06:20:22.651Z,5.63
2019-01-19T06:25:18.392Z,5.73
2019-01-19T06:30:19.265Z,5.30
2019-01-19T06:35:15.003Z,7.27
2019-01-19T06:40:12.151Z,5.53
2019-01-19T06:45:11.115Z,8.47
2019-01-19T06:50:09.143Z,7.13
2019-01-19T06:55:05.398Z,6.80
2019-01-19T07:00:01.113Z,6.50
2019-01-19T07:04:57.842Z,5.50
2019-01-19T07:09:53.577Z,4.97
2019-01-19T07:14:49.296Z,28.27
2019-01-19T07:19:45.060Z,36.17
2019-01-19T07:24:40.758Z,6.20
2019-01-19T07:29:36.514Z,5.10
2019-01-19T07:34:32.268Z,6.63
2019-01-19T07:39:28.025Z,7.23
2019-01-19T07:44:23.758Z,6.33
2019-01-19T07:49:19.486Z,14.93
2019-01-19T07:54:15.214Z,4.87
2019-01-19T07:59:10.954Z,16.90
2019-01-19T08:04:06.716Z,22.13
2019-01-19T08:09:02.466Z,11.50
2019-01-19T08:13:58.189Z,10.23
2019-01-19T08:18:53.877Z,9.40
2019-01-19T08:23:49.606Z,8.80
2019-01-19T08:28:45.291Z,7.17
2019-01-19T08:33:41.543Z,7.23
2019-01-19T08:38:37.193Z,5.47
2019-01-19T08:43:39.470Z,6.33
2019-01-19T08:48:36.830Z,4.50
2019-01-19T08:53:32.691Z,6.27
2019-01-19T08:58:29.074Z,6.57
2019-01-19T09:03:24.777Z,5.90
2019-01-19T09:08:20.505Z,5.60
2019-01-19T09:13:16.261Z,4.90
2019-01-19T09:18:12.009Z,6.20
2019-01-19T09:23:23.851Z,5.80
2019-01-19T09:28:19.552Z,6.10
2019-01-19T09:33:15.220Z,6.40
2019-01-19T09:38:10.970Z,6.47
2019-01-19T09:43:06.730Z,6.33
2019-01-19T09:48:02.490Z,7.50
2019-01-19T09:52:58.192Z,7.73
2019-01-19T09:57:54.061Z,7.83
2019-01-19T10:02:49.815Z,6.33
2019-01-19T10:07:48.654Z,9.40
2019-01-19T10:12:43.104Z,12.63
2019-01-19T10:17:38.866Z,12.00
2019-01-19T10:22:34.619Z,9.10
2019-01-19T10:27:37.274Z,7.40
2019-01-19T10:32:27.722Z,7.17
2019-01-19T10:37:25.321Z,6.83
2019-01-19T10:42:21.319Z,6.30
2019-01-19T10:47:17.157Z,6.40
2019-01-19T10:52:13.103Z,5.43
2019-01-19T10:57:08.852Z,5.50
2019-01-19T11:02:04.801Z,5.63
2019-01-19T11:07:00.593Z,6.73
2019-01-19T11:11:57.635Z,6.87
2019-01-19T11:16:53.294Z,6.27
2019-01-19T11:21:49.052Z,6.60
2019-01-19T11:26:44.787Z,7.43
2019-01-19T11:31:40.512Z,7.67
2019-01-19T11:36:36.343Z,9.30
2019-01-19T11:41:33.173Z,9.17
2019-01-19T11:46:28.933Z,9.93
2019-01-19T11:51:24.684Z,7.90
2019-01-19T11:56:20.421Z,10.70
2019-01-19T12:01:16.164Z,7.27
2019-01-19T12:06:12.004Z,6.93
2019-01-19T12:11:07.757Z,6.57
2019-01-19T12:16:03.762Z,6.17
2019-01-19T12:20:59.521Z,6.37
2019-01-19T12:25:55.290Z,6.40
2019-01-19T12:30:51.508Z,6.80
2019-01-19T12:35:47.496Z,9.07
2019-01-19T12:40:43.258Z,7.17
2019-01-19T12:46:02.645Z,7.60
2019-01-19T12:50:58.467Z,6.87
2019-01-19T12:55:54.231Z,7.17
2019-01-19T13:00:50.021Z,8.03
2019-01-19T13:06:16.830Z,8.37
2019-01-19T13:11:44.543Z,8.03
2019-01-19T13:17:14.255Z,8.53
2019-01-19T13:23:03.193Z,9.60
2019-01-19T13:28:36.055Z,8.17
2019-01-19T13:33:57.709Z,7.50
2019-01-19T13:39:55.838Z,7.63
2019-01-19T13:45:28.850Z,8.73
2019-01-19T13:50:49.517Z,9.53
2019-01-19T13:56:15.668Z,9.87
2019-01-19T14:01:48.353Z,8.13
2019-01-19T14:07:16.395Z,8.33
2019-01-19T14:13:00.618Z,7.50
2019-01-19T14:18:33.398Z,7.73
2019-01-19T14:24:09.966Z,8.03
2019-01-19T14:29:37.742Z,9.23
2019-01-19T14:34:58.806Z,8.70
2019-01-19T14:40:41.846Z,8.47
2019-01-19T14:46:08.703Z,10.83
2019-01-19T14:51:45.449Z,10.90
2019-01-19T14:57:10.520Z,8.90
2019-01-19T15:02:39.629Z,9.67
2019-01-19T15:07:58.302Z,11.30
2019-01-19T15:13:12.875Z,10.10
2019-01-19T15:18:38.271Z,10.20
2019-01-19T15:23:52.878Z,11.50
2019-01-19T15:29:31.466Z,10.97
2019-01-19T15:35:24.910Z,9.80
2019-01-19T15:41:06.352Z,10.23
2019-01-19T15:46:40.361Z,11.23
2019-01-19T15:51:59.164Z,10.53
2019-01-19T15:57:48.445Z,10.70
2019-01-19T16:03:15.750Z,11.53
2019-01-19T16:09:06.531Z,10.23
2019-01-19T16:14:46.374Z,10.80
2019-01-19T16:20:29.135Z,11.27
2019-01-19T16:26:05.539Z,11.53
2019-01-19T16:31:29.092Z,11.40
2019-01-19T16:37:04.678Z,11.77
2019-01-19T16:42:26.709Z,17.93
2019-01-19T16:47:49.209Z,20.20
2019-01-19T16:52:59.862Z,11.90
2019-01-19T16:58:17.858Z,13.50
2019-01-19T17:04:06.737Z,12.17
2019-01-19T17:09:55.679Z,12.17
2019-01-19T17:15:14.931Z,13.17
2019-01-19T17:20:42.443Z,10.97
2019-01-19T17:26:13.997Z,10.07
2019-01-19T17:31:52.572Z,10.97
2019-01-19T17:37:29.259Z,12.93
2019-01-19T17:43:06.585Z,14.63
2019-01-19T17:48:27.226Z,13.50
2019-01-19T17:54:02.060Z,24.40
2019-01-19T17:59:53.960Z,12.17
2019-01-19T18:05:07.006Z,10.43
2019-01-19T18:10:45.241Z,11.30
2019-01-19T18:16:19.060Z,13.33
2019-01-19T18:21:38.826Z,13.50
2019-01-19T18:27:12.750Z,14.43
2019-01-19T18:32:39.752Z,17.87
2019-01-19T18:38:28.493Z,17.50
2019-01-19T18:44:01.192Z,17.70
2019-01-19T18:49:37.375Z,18.77
2019-01-19T18:55:04.362Z,16.67
2019-01-19T19:00:56.330Z,14.83
2019-01-19T19:06:08.179Z,17.00
2019-01-19T19:11:50.718Z,16.23
2019-01-19T19:22:33.170Z,26.33
2019-01-19T19:27:52.629Z,26.30
2019-01-19T19:33:10.783Z,25.33
2019-01-19T19:38:43.715Z,22.90
2019-01-19T19:44:18.662Z,21.50
2019-01-19T19:55:08.705Z,23.30
2019-01-19T20:00:05.885Z,24.70
2019-01-19T20:05:01.790Z,26.07
2019-01-19T20:09:57.725Z,24.60
2019-01-19T20:14:53.756Z,22.70
2019-01-19T20:19:49.821Z,23.97
2019-01-19T20:24:45.874Z,20.57
2019-01-19T20:29:42.734Z,21.20
2019-01-19T20:34:38.701Z,26.60
2019-01-19T20:39:34.682Z,21.87
2019-01-19T20:44:37.736Z,22.80
2019-01-19T20:49:33.545Z,22.67
2019-01-19T20:54:30.728Z,18.70
2019-01-19T20:59:26.677Z,17.37
2019-01-19T21:04:22.424Z,18.03
2019-01-19T21:09:18.279Z,16.73
2019-01-19T21:14:14.083Z,16.53
2019-01-19T21:19:10.015Z,16.97
2019-01-19T21:24:06.010Z,17.63
2019-01-19T21:29:01.912Z,17.90
2019-01-19T21:33:57.749Z,16.63
2019-01-19T21:38:53.544Z,18.50
2019-01-19T21:43:49.690Z,17.53
2019-01-19T21:48:45.645Z,17.63
2019-01-19T21:53:41.513Z,18.40
2019-01-19T21:58:37.598Z,17.60
2019-01-19T22:03:33.410Z,17.50
2019-01-19T22:08:29.351Z,18.93
2019-01-19T22:13:30.081Z,18.23
2019-01-19T22:18:25.854Z,16.83
2019-01-19T22:23:21.815Z,18.30
2019-01-19T22:28:23.355Z,18.57
2019-01-19T22:33:20.217Z,22.57
2019-01-19T22:38:16.294Z,24.17
2019-01-19T22:49:26.632Z,22.57
2019-01-19T22:54:22.221Z,21.73
2019-01-19T22:59:17.911Z,40.93
2019-01-19T23:04:14.571Z,41.73
2019-01-19T23:09:12.601Z,34.10
2019-01-19T23:14:12.388Z,25.40
2019-01-19T23:19:08.207Z,40.63
2019-01-19T23:24:03.807Z,53.57
2019-01-19T23:28:59.484Z,67.77
2019-01-19T23:33:55.110Z,71.23
2019-01-19T23:38:50.861Z,60.90
2019-01-19T23:43:46.554Z,34.40
2019-01-19T23:48:42.165Z,23.40
2019-01-19T23:53:37.793Z,19.50
2019-01-19T23:58:33.593Z,24.10
